createdAt,value
2022-08-16T00:02:44.695Z,8.98
2022-08-16T00:05:49.540Z,10.05
2022-08-16T00:09:02.491Z,8.93
2022-08-16T00:12:07.188Z,8.35
2022-08-16T00:15:17.361Z,8.88
2022-08-16T00:18:22.231Z,9.10
2022-08-16T00:21:32.010Z,8.88
2022-08-16T00:24:36.341Z,8.47
2022-08-16T00:27:40.992Z,10.10
2022-08-16T00:30:51.515Z,7.90
2022-08-16T00:33:57.000Z,10.07
2022-08-16T00:37:00.792Z,9.25
2022-08-16T00:40:33.606Z,8.00
2022-08-16T00:43:42.399Z,8.75
2022-08-16T00:47:08.824Z,8.75
2022-08-16T00:50:13.683Z,9.30
2022-08-16T00:53:17.642Z,12.00
2022-08-16T00:56:58.379Z,8.40
2022-08-16T00:59:54.864Z,10.68
2022-08-16T01:03:11.696Z,9.50
2022-08-16T01:06:40.144Z,10.50
2022-08-16T01:09:43.023Z,9.15
2022-08-16T01:12:46.460Z,10.40
2022-08-16T01:16:01.182Z,9.57
2022-08-16T01:19:23.999Z,9.05
2022-08-16T01:23:00.354Z,10.60
2022-08-16T01:26:33.672Z,8.80
2022-08-16T01:29:57.588Z,9.60
2022-08-16T01:33:15.310Z,11.35
2022-08-16T01:36:19.980Z,11.12
2022-08-16T01:39:30.884Z,11.57
2022-08-16T01:42:42.303Z,11.38
2022-08-16T01:45:46.157Z,10.03
2022-08-16T01:48:53.962Z,11.70
2022-08-16T01:52:28.306Z,9.55
2022-08-16T01:55:35.474Z,13.05
2022-08-16T01:58:40.680Z,10.35
2022-08-16T02:01:59.740Z,9.87
2022-08-16T02:05:06.014Z,10.63
2022-08-16T02:08:10.018Z,9.48
2022-08-16T02:11:47.491Z,10.55
2022-08-16T02:14:51.978Z,11.27
2022-08-16T02:17:58.630Z,11.43
2022-08-16T02:21:05.151Z,10.40
2022-08-16T02:24:31.616Z,9.82
2022-08-16T02:27:32.903Z,10.73
2022-08-16T02:30:44.238Z,12.48
2022-08-16T02:33:55.078Z,9.50
2022-08-16T02:36:59.517Z,9.60
2022-08-16T02:40:06.204Z,8.40
2022-08-16T02:43:10.471Z,10.20
2022-08-16T02:46:15.117Z,9.30
2022-08-16T02:49:18.610Z,9.10
2022-08-16T02:52:24.739Z,13.20
2022-08-16T02:55:40.944Z,9.63
2022-08-16T02:58:47.255Z,9.38
2022-08-16T03:01:50.957Z,10.65
2022-08-16T03:04:55.319Z,10.43
2022-08-16T03:07:58.985Z,8.48
2022-08-16T03:11:16.727Z,7.53
2022-08-16T03:14:24.640Z,10.15
2022-08-16T03:17:32.524Z,8.32
2022-08-16T03:20:39.680Z,8.63
2022-08-16T03:23:43.433Z,11.07
2022-08-16T03:26:48.455Z,9.60
2022-08-16T03:29:55.126Z,12.27
2022-08-16T03:32:59.595Z,9.40
2022-08-16T03:36:30.894Z,10.40
2022-08-16T03:39:28.517Z,11.57
2022-08-16T03:42:34.173Z,10.13
2022-08-16T03:45:59.792Z,9.98
2022-08-16T03:49:12.293Z,10.55
2022-08-16T03:52:16.503Z,8.60
2022-08-16T03:55:20.981Z,10.77
2022-08-16T03:58:27.457Z,8.43
2022-08-16T04:01:31.139Z,9.45
2022-08-16T04:04:36.470Z,11.20
2022-08-16T04:07:40.104Z,9.20
2022-08-16T04:10:49.023Z,11.02
2022-08-16T04:14:00.959Z,10.57
2022-08-16T04:17:19.283Z,9.77
2022-08-16T04:20:34.066Z,10.52
2022-08-16T04:23:41.558Z,9.47
2022-08-16T04:26:46.036Z,10.73
2022-08-16T04:29:52.254Z,14.50
2022-08-16T04:32:57.181Z,9.80
2022-08-16T04:36:04.882Z,8.35
2022-08-16T04:39:09.656Z,10.63
2022-08-16T04:42:15.287Z,12.82
2022-08-16T04:45:19.552Z,8.52
2022-08-16T04:48:41.340Z,14.25
2022-08-16T04:51:53.822Z,11.85
2022-08-16T04:54:58.899Z,12.40
2022-08-16T04:58:44.106Z,8.82
2022-08-16T05:01:58.856Z,9.82
2022-08-16T05:04:56.247Z,9.75
2022-08-16T05:08:00.577Z,9.43
2022-08-16T05:11:08.257Z,9.20
2022-08-16T05:14:20.125Z,9.90
2022-08-16T05:17:37.069Z,9.95
2022-08-16T05:20:57.044Z,11.02
2022-08-16T05:24:07.291Z,11.77
2022-08-16T05:27:12.449Z,9.77
2022-08-16T05:30:34.516Z,9.48
2022-08-16T05:33:42.259Z,11.12
2022-08-16T05:36:47.153Z,11.12
2022-08-16T05:39:55.690Z,11.75
2022-08-16T05:42:59.793Z,15.07
2022-08-16T05:46:28.701Z,9.07
2022-08-16T05:49:38.280Z,8.82
2022-08-16T05:52:45.017Z,9.98
2022-08-16T05:55:48.854Z,9.15
2022-08-16T05:58:54.965Z,9.20
2022-08-16T06:02:01.004Z,9.65
2022-08-16T06:05:06.927Z,9.98
2022-08-16T06:08:31.503Z,10.35
2022-08-16T06:11:38.484Z,10.75
2022-08-16T06:14:46.302Z,13.80
2022-08-16T06:17:51.718Z,12.23
2022-08-16T06:20:57.953Z,9.57
2022-08-16T06:24:53.867Z,9.35
2022-08-16T06:27:28.335Z,10.05
2022-08-16T06:30:45.801Z,11.13
2022-08-16T06:33:51.875Z,10.13
2022-08-16T06:36:59.388Z,7.95
2022-08-16T06:40:12.904Z,12.25
2022-08-16T06:43:21.678Z,9.48
2022-08-16T06:46:34.674Z,10.50
2022-08-16T06:49:52.799Z,12.37
2022-08-16T06:53:00.475Z,12.45
2022-08-16T06:56:14.692Z,9.93
2022-08-16T06:59:29.429Z,10.85
2022-08-16T07:02:33.975Z,9.33
2022-08-16T07:05:41.803Z,12.25
2022-08-16T07:08:48.559Z,10.68
2022-08-16T07:11:52.398Z,10.15
2022-08-16T07:15:00.737Z,12.13
2022-08-16T07:18:05.805Z,9.27
2022-08-16T07:21:12.002Z,8.88
2022-08-16T07:24:30.211Z,8.98
2022-08-16T07:27:37.353Z,9.77
2022-08-16T07:30:47.052Z,11.88
2022-08-16T07:33:54.938Z,9.63
2022-08-16T07:37:06.163Z,10.88
2022-08-16T07:40:31.875Z,10.93
2022-08-16T07:43:43.974Z,10.98
2022-08-16T07:46:55.609Z,10.55
2022-08-16T07:50:05.471Z,9.53
2022-08-16T07:53:11.984Z,10.43
2022-08-16T07:56:16.496Z,9.38
2022-08-16T07:59:24.954Z,8.80
2022-08-16T08:02:47.694Z,10.32
2022-08-16T08:05:55.791Z,8.80
2022-08-16T08:09:00.329Z,8.20
2022-08-16T08:12:05.574Z,10.38
2022-08-16T08:15:11.483Z,6.55
2022-08-16T08:18:29.902Z,8.38
2022-08-16T08:22:00.111Z,7.07
2022-08-16T08:25:03.637Z,10.20
2022-08-16T08:28:11.083Z,8.00
2022-08-16T08:31:17.336Z,11.32
2022-08-16T08:34:22.304Z,7.85
2022-08-16T08:37:27.659Z,8.30
2022-08-16T08:40:58.517Z,6.70
2022-08-16T08:44:29.835Z,13.18
2022-08-16T08:47:27.972Z,7.37
2022-08-16T08:50:32.541Z,6.15
2022-08-16T08:53:37.144Z,9.50
2022-08-16T08:56:45.840Z,11.18
2022-08-16T08:59:53.112Z,8.85
2022-08-16T09:02:57.259Z,5.93
2022-08-16T09:06:02.132Z,7.28
2022-08-16T09:09:09.709Z,5.83
2022-08-16T09:12:35.796Z,7.05
2022-08-16T09:15:41.110Z,6.68
2022-08-16T09:18:45.472Z,6.30
2022-08-16T09:21:55.976Z,8.25
2022-08-16T09:25:09.817Z,9.90
2022-08-16T09:29:13.592Z,11.02
2022-08-16T09:31:41.128Z,7.68
2022-08-16T09:34:46.865Z,7.68
2022-08-16T09:38:01.018Z,7.75
2022-08-16T09:41:24.488Z,6.27
2022-08-16T09:45:12.927Z,5.30
2022-08-16T09:47:56.479Z,5.87
2022-08-16T09:51:01.824Z,7.07
2022-08-16T09:54:09.644Z,7.53
2022-08-16T09:57:13.331Z,5.67
2022-08-16T10:00:44.028Z,6.82
2022-08-16T10:04:02.843Z,6.15
2022-08-16T10:07:14.947Z,6.55
2022-08-16T10:10:30.894Z,7.40
2022-08-16T10:13:35.302Z,7.10
2022-08-16T10:16:39.213Z,9.02
2022-08-16T10:19:43.284Z,5.15
2022-08-16T10:22:47.998Z,10.02
2022-08-16T10:27:18.016Z,5.97
2022-08-16T10:29:20.031Z,7.43
2022-08-16T10:32:23.977Z,7.32
2022-08-16T10:35:33.591Z,5.05
2022-08-16T10:38:39.747Z,4.78
2022-08-16T10:41:46.006Z,5.25
2022-08-16T10:44:54.622Z,7.40
2022-08-16T10:48:02.026Z,5.07
2022-08-16T10:51:11.191Z,5.60
2022-08-16T10:54:28.409Z,5.20
2022-08-16T10:57:33.198Z,5.85
2022-08-16T11:00:40.789Z,7.30
2022-08-16T11:03:46.021Z,6.53
2022-08-16T11:10:57.413Z,6.75
2022-08-16T11:14:10.682Z,6.07
2022-08-16T11:17:11.407Z,6.33
2022-08-16T11:23:57.578Z,5.82
2022-08-16T11:27:20.548Z,5.53
2022-08-16T11:30:28.448Z,6.72
2022-08-16T11:33:58.108Z,7.57
2022-08-16T11:37:02.577Z,7.25
2022-08-16T11:40:10.538Z,5.95
2022-08-16T11:43:17.336Z,6.62
2022-08-16T11:46:44.212Z,6.57
2022-08-16T11:49:46.128Z,5.67
2022-08-16T11:52:53.841Z,7.10
2022-08-16T11:56:00.295Z,4.97
2022-08-16T11:59:05.086Z,7.47
2022-08-16T12:02:31.241Z,5.60
2022-08-16T12:05:33.402Z,7.20
2022-08-16T12:08:36.858Z,6.57
2022-08-16T12:11:40.555Z,5.93
2022-08-16T12:14:47.257Z,4.87
2022-08-16T12:17:50.944Z,6.82
2022-08-16T12:20:55.219Z,7.17
2022-08-16T12:23:58.538Z,6.50
2022-08-16T12:27:01.792Z,8.10
2022-08-16T12:30:06.301Z,5.87
2022-08-16T12:33:25.504Z,6.07
2022-08-16T12:36:30.083Z,5.07
2022-08-16T12:39:34.638Z,6.87
2022-08-16T12:42:38.041Z,11.10
2022-08-16T12:45:55.142Z,7.80
2022-08-16T12:49:03.523Z,5.65
2022-08-16T12:52:07.013Z,5.77
2022-08-16T12:55:11.728Z,6.30
2022-08-16T12:58:49.941Z,5.50
2022-08-16T13:01:50.653Z,6.37
2022-08-16T13:05:06.876Z,5.93
2022-08-16T13:08:20.026Z,5.53
2022-08-16T13:11:38.868Z,6.87
2022-08-16T13:14:53.013Z,6.25
2022-08-16T13:17:58.601Z,7.37
2022-08-16T13:21:11.333Z,5.70
2022-08-16T13:24:16.278Z,6.63
2022-08-16T13:27:34.988Z,6.40
2022-08-16T13:30:50.654Z,6.60
2022-08-16T13:33:58.727Z,5.75
2022-08-16T13:37:02.894Z,5.93
2022-08-16T13:40:19.793Z,6.10
2022-08-16T13:43:32.339Z,5.65
2022-08-16T13:46:41.851Z,4.90
2022-08-16T13:49:48.811Z,5.35
2022-08-16T13:52:53.685Z,5.78
2022-08-16T13:56:00.338Z,5.13
2022-08-16T13:59:04.876Z,5.20
2022-08-16T14:02:09.945Z,5.25
2022-08-16T14:05:14.848Z,8.40
2022-08-16T14:08:27.255Z,10.70
2022-08-16T14:11:32.485Z,8.03
2022-08-16T14:14:37.491Z,15.63
2022-08-16T14:18:17.106Z,10.27
2022-08-16T14:21:07.566Z,21.70
2022-08-16T14:24:22.625Z,16.17
2022-08-16T14:27:35.096Z,8.20
2022-08-16T14:30:43.080Z,8.95
2022-08-16T14:33:48.775Z,7.57
2022-08-16T14:36:53.219Z,7.32
2022-08-16T14:39:57.156Z,6.43
2022-08-16T14:43:07.043Z,7.43
2022-08-16T14:46:10.989Z,8.30
2022-08-16T14:49:14.574Z,7.55
2022-08-16T14:52:44.537Z,9.50
2022-08-16T14:55:44.318Z,54.90
2022-08-16T14:58:48.121Z,34.73
2022-08-16T15:01:59.312Z,95.00
2022-08-16T15:05:04.918Z,27.42
2022-08-16T15:08:10.814Z,7.50
2022-08-16T15:11:15.164Z,8.57
2022-08-16T15:14:21.645Z,7.83
2022-08-16T15:17:25.983Z,9.95
2022-08-16T15:20:39.442Z,8.30
2022-08-16T15:23:43.277Z,9.02
2022-08-16T15:26:47.710Z,6.25
2022-08-16T15:29:52.822Z,5.70
2022-08-16T15:33:07.247Z,6.75
2022-08-16T15:36:14.258Z,5.90
2022-08-16T15:39:31.833Z,5.30
2022-08-16T15:42:53.925Z,5.10
2022-08-16T15:46:34.989Z,5.83
2022-08-16T15:49:46.659Z,9.50
2022-08-16T15:52:50.955Z,32.47
2022-08-16T15:55:55.445Z,15.60
2022-08-16T15:58:58.872Z,7.70
2022-08-16T16:02:02.708Z,11.03
2022-08-16T16:05:09.753Z,7.12
2022-08-16T16:08:22.618Z,6.18
2022-08-16T16:11:28.033Z,6.95
2022-08-16T16:14:34.580Z,9.02
2022-08-16T16:17:38.735Z,13.60
2022-08-16T16:20:54.034Z,8.73
2022-08-16T16:23:57.967Z,9.13
2022-08-16T16:27:06.878Z,7.87
2022-08-16T16:30:33.358Z,6.62
2022-08-16T16:33:39.919Z,5.23
2022-08-16T16:36:43.555Z,6.95
2022-08-16T16:39:52.413Z,6.28
2022-08-16T16:42:59.550Z,7.05
2022-08-16T16:46:38.920Z,7.37
2022-08-16T16:49:29.772Z,15.17
2022-08-16T16:52:44.113Z,10.80
2022-08-16T16:55:52.200Z,8.98
2022-08-16T16:59:01.099Z,9.27
2022-08-16T17:02:38.550Z,8.07
2022-08-16T17:05:32.417Z,35.57
2022-08-16T17:08:37.879Z,67.00
2022-08-16T17:11:46.208Z,54.83
2022-08-16T17:14:58.322Z,72.18
2022-08-16T17:18:36.953Z,33.53
2022-08-16T17:21:26.392Z,14.33
2022-08-16T17:24:39.648Z,24.65
2022-08-16T17:27:50.929Z,18.08
2022-08-16T17:30:59.801Z,17.00
2022-08-16T17:34:03.312Z,16.17
2022-08-16T17:37:42.363Z,6.47
2022-08-16T17:40:57.932Z,17.48
2022-08-16T17:44:01.614Z,5.93
2022-08-16T17:47:05.172Z,6.03
2022-08-16T17:50:10.312Z,7.62
2022-08-16T17:53:16.795Z,7.40
2022-08-16T17:56:20.654Z,7.37
2022-08-16T17:59:24.366Z,6.78
2022-08-16T18:02:42.472Z,6.95
2022-08-16T18:05:48.510Z,6.93
2022-08-16T18:09:00.218Z,15.20
2022-08-16T18:12:44.946Z,7.65
2022-08-16T18:15:42.316Z,7.50
2022-08-16T18:18:46.618Z,8.38
2022-08-16T18:22:08.143Z,6.57
2022-08-16T18:25:12.696Z,6.70
2022-08-16T18:28:19.005Z,8.18
2022-08-16T18:31:22.411Z,6.90
2022-08-16T18:34:25.996Z,8.82
2022-08-16T18:37:30.045Z,6.95
2022-08-16T18:40:38.533Z,6.07
2022-08-16T18:43:59.169Z,8.25
2022-08-16T18:47:06.215Z,6.93
2022-08-16T18:50:10.723Z,5.95
2022-08-16T18:53:15.893Z,7.18
2022-08-16T18:56:19.803Z,5.70
2022-08-16T18:59:23.073Z,8.75
2022-08-16T19:02:43.082Z,7.40
2022-08-16T19:06:04.577Z,5.90
2022-08-16T19:09:07.848Z,7.90
2022-08-16T19:12:11.297Z,6.10
2022-08-16T19:15:24.465Z,7.87
2022-08-16T19:18:28.885Z,6.35
2022-08-16T19:21:40.568Z,8.38
2022-08-16T19:24:44.201Z,7.82
2022-08-16T19:27:49.984Z,5.67
2022-08-16T19:30:55.365Z,5.15
2022-08-16T19:34:00.240Z,5.62
2022-08-16T19:37:02.915Z,5.97
2022-08-16T19:40:25.638Z,5.62
2022-08-16T19:43:32.128Z,7.43
2022-08-16T19:46:36.147Z,6.93
2022-08-16T19:49:42.401Z,9.60
2022-08-16T19:52:48.117Z,6.22
2022-08-16T19:55:51.320Z,7.95
2022-08-16T19:59:18.156Z,8.50
2022-08-16T20:02:36.008Z,6.07
2022-08-16T20:05:42.969Z,6.55
2022-08-16T20:08:46.774Z,6.53
2022-08-16T20:11:52.686Z,6.45
2022-08-16T20:14:55.913Z,7.77
2022-08-16T20:18:00.795Z,6.37
2022-08-16T20:21:04.600Z,6.80
2022-08-16T20:24:32.751Z,6.50
2022-08-16T20:27:31.374Z,7.05
2022-08-16T20:30:45.891Z,6.80
2022-08-16T20:33:51.466Z,6.87
2022-08-16T20:36:54.577Z,6.53
2022-08-16T20:40:27.297Z,6.87
2022-08-16T20:43:21.233Z,5.43
2022-08-16T20:46:24.067Z,5.73
2022-08-16T20:49:28.560Z,5.57
2022-08-16T20:52:31.886Z,6.32
2022-08-16T20:55:39.014Z,6.32
2022-08-16T20:58:41.997Z,6.50
2022-08-16T21:01:50.381Z,8.77
2022-08-16T21:04:54.396Z,7.00
2022-08-16T21:07:58.059Z,6.15
2022-08-16T21:11:02.833Z,6.68
2022-08-16T21:14:10.947Z,7.20
2022-08-16T21:17:16.272Z,6.23
2022-08-16T21:20:23.803Z,6.60
2022-08-16T21:23:26.545Z,6.07
2022-08-16T21:26:30.444Z,5.57
2022-08-16T21:29:39.743Z,6.28
2022-08-16T21:32:46.184Z,5.47
2022-08-16T21:35:49.762Z,11.00
2022-08-16T21:38:53.709Z,10.20
2022-08-16T21:41:57.767Z,7.95
2022-08-16T21:45:00.667Z,6.65
2022-08-16T21:48:04.383Z,7.23
2022-08-16T21:51:11.785Z,7.47
2022-08-16T21:54:16.009Z,7.60
2022-08-16T21:57:22.488Z,8.57
2022-08-16T22:00:27.640Z,5.47
2022-08-16T22:03:35.388Z,8.73
2022-08-16T22:06:39.245Z,6.43
2022-08-16T22:09:43.360Z,7.43
2022-08-16T22:12:46.661Z,6.78
2022-08-16T22:15:54.170Z,11.12
2022-08-16T22:18:57.831Z,6.07
2022-08-16T22:22:02.091Z,6.93
2022-08-16T22:25:06.119Z,7.55
2022-08-16T22:28:10.321Z,6.53
2022-08-16T22:31:14.083Z,6.72
2022-08-16T22:34:17.887Z,6.40
2022-08-16T22:37:20.560Z,9.95
2022-08-16T22:40:28.966Z,7.95
2022-08-16T22:43:32.952Z,7.07
2022-08-16T22:46:36.885Z,8.02
2022-08-16T22:49:39.858Z,7.83
2022-08-16T22:52:56.955Z,6.35
2022-08-16T22:56:00.506Z,7.43
2022-08-16T22:59:03.795Z,7.05
2022-08-16T23:02:09.509Z,8.18
2022-08-16T23:05:12.429Z,7.30
2022-08-16T23:08:38.168Z,7.32
2022-08-16T23:11:41.529Z,7.87
2022-08-16T23:14:44.572Z,6.95
2022-08-16T23:17:50.316Z,6.65
2022-08-16T23:21:00.317Z,6.63
2022-08-16T23:24:03.530Z,6.20
2022-08-16T23:27:07.352Z,6.62
2022-08-16T23:30:11.536Z,6.80
2022-08-16T23:33:15.710Z,6.15
2022-08-16T23:36:18.984Z,6.97
2022-08-16T23:39:22.061Z,7.35
2022-08-16T23:42:53.340Z,7.45
2022-08-16T23:45:51.307Z,7.60
2022-08-16T23:49:56.712Z,6.85
2022-08-16T23:52:54.855Z,6.20
2022-08-16T23:55:45.291Z,6.90
2022-08-16T23:58:54.602Z,11.43
